Time;durP1;ratioP1;P1;durP2;ratioP2;P2;SDS_P1;SDS_P2;PMS_P1;PMS_P2;Temp;Humidity;BMP_temperature;BMP_pressure;BME280_temperature;BME280_humidity;BME280_pressure;Samples;Min_cycle;Max_cycle;Signal;HPM_P1;HPM_P2
2023/05/16 00:02:18;;;;;;;16.88;2.40;;;;;;;-143.48;84.86;118439.88;5053188;28;20021;-39
2023/05/16 00:04:44;;;;;;;13.43;2.15;;;;;;;-143.48;84.45;118439.88;5052935;28;20025;-39
2023/05/16 00:07:10;;;;;;;11.90;2.42;;;;;;;-143.48;83.38;118439.88;5054390;28;20036;-38
2023/05/16 00:09:35;;;;;;;16.10;2.60;;;;;;;-143.48;83.64;118439.88;5037195;28;20032;-39
2023/05/16 00:12:01;;;;;;;17.48;2.28;;;;;;;-143.48;83.55;118439.88;5055630;28;20108;-39
2023/05/16 00:14:27;;;;;;;25.40;3.20;;;;;;;-143.48;83.41;118439.88;5055575;28;20041;-38
2023/05/16 00:16:52;;;;;;;17.20;2.40;;;;;;;-143.48;83.22;118439.88;5055912;28;20124;-38
2023/05/16 00:19:19;;;;;;;14.60;2.00;;;;;;;-143.48;83.68;118439.88;5055490;28;20104;-39
2023/05/16 00:21:44;;;;;;;20.40;2.28;;;;;;;-143.48;82.63;118439.88;5057137;28;20463;-38
2023/05/16 00:24:09;;;;;;;14.55;2.17;;;;;;;-143.48;84.02;118439.88;5057882;28;20025;-39
2023/05/16 00:26:35;;;;;;;12.10;2.30;;;;;;;-143.48;83.77;118439.88;5057196;28;20025;-39
2023/05/16 00:29:01;;;;;;;15.88;2.20;;;;;;;-143.48;85.25;118439.88;5056842;28;20025;-38
2023/05/16 00:31:26;;;;;;;14.10;2.20;;;;;;;-143.48;83.81;118439.88;5057174;28;20077;-38
2023/05/16 00:33:52;;;;;;;16.48;2.85;;;;;;;-143.48;84.57;118439.88;5038830;28;20028;-38
2023/05/16 00:36:17;;;;;;;11.07;1.67;;;;;;;-143.48;84.48;118439.88;5057098;28;20021;-39
2023/05/16 00:38:42;;;;;;;15.48;2.08;;;;;;;-143.48;85.11;118439.88;5056726;28;20162;-38
2023/05/16 00:41:08;;;;;;;18.98;2.10;;;;;;;-143.48;84.89;118439.88;5056980;28;20025;-39
2023/05/16 00:43:33;;;;;;;14.38;2.47;;;;;;;-143.48;84.74;118439.88;5056776;28;20490;-38
2023/05/16 00:45:59;;;;;;;15.40;2.53;;;;;;;-143.48;84.77;118439.88;5056897;28;20160;-38
2023/05/16 00:48:25;;;;;;;19.02;2.50;;;;;;;-143.48;84.66;118439.88;5056835;28;20029;-38
2023/05/16 00:50:51;;;;;;;13.43;2.22;;;;;;;-143.48;85.72;118439.88;5056435;28;20108;-39
2023/05/16 00:53:17;;;;;;;11.07;2.47;;;;;;;-143.48;84.76;118439.88;5056454;28;20110;-39
2023/05/16 00:55:42;;;;;;;18.48;2.40;;;;;;;-143.48;84.83;118439.88;5057023;28;20029;-39
2023/05/16 00:58:09;;;;;;;16.50;2.85;;;;;;;-143.48;85.07;118439.88;5056445;28;20098;-39
2023/05/16 01:00:35;;;;;;;19.98;2.38;;;;;;;-143.48;87.02;118439.88;5056687;28;20025;-39
2023/05/16 01:03:00;;;;;;;15.80;2.22;;;;;;;-143.48;86.04;118439.88;5056226;28;20489;-38
2023/05/16 01:05:27;;;;;;;16.05;2.10;;;;;;;-143.48;85.94;118439.88;5056848;28;20443;-38
2023/05/16 01:07:52;;;;;;;20.60;2.53;;;;;;;-143.48;85.39;118439.88;5056216;28;20031;-37
2023/05/16 01:10:18;;;;;;;14.20;2.17;;;;;;;-143.48;85.55;118439.88;5056362;28;20029;-38
2023/05/16 01:13:10;;;;;;;15.27;1.80;;;;;;;-143.48;86.08;118439.88;5056425;28;20071;-37
2023/05/16 01:15:46;;;;;;;18.13;2.50;;;;;;;-143.48;86.40;118439.88;5055890;28;20060;-37
2023/05/16 01:18:14;;;;;;;12.50;2.20;;;;;;;-143.48;85.57;118439.88;5055822;28;20071;-38
2023/05/16 01:20:54;;;;;;;13.27;1.83;;;;;;;-143.48;85.45;118439.88;5056230;28;20021;-37
2023/05/16 01:23:29;;;;;;;17.08;2.90;;;;;;;-143.48;85.36;118439.88;5055853;28;20025;-38
2023/05/16 01:26:10;;;;;;;16.73;2.03;;;;;;;-143.48;86.63;118439.88;5056127;28;20025;-38
2023/05/16 01:28:38;;;;;;;17.38;2.42;;;;;;;-143.48;87.51;118439.88;5056383;28;20078;-38
2023/05/16 01:31:03;;;;;;;14.50;2.47;;;;;;;-143.48;87.46;118439.88;5055961;28;20032;-38
2023/05/16 01:33:28;;;;;;;13.75;2.30;;;;;;;-143.48;88.95;118439.88;5055935;28;20025;-37
2023/05/16 01:36:07;;;;;;;22.67;2.67;;;;;;;-143.48;88.82;118439.88;5055860;28;20021;-38
2023/05/16 01:38:40;;;;;;;17.20;2.42;;;;;;;-143.48;89.09;118439.88;5055056;28;20523;-37
2023/05/16 01:41:15;;;;;;;15.88;2.17;;;;;;;-143.48;89.40;118439.88;5055143;28;20591;-37
2023/05/16 01:43:44;;;;;;;21.38;2.38;;;;;;;-143.48;89.07;118439.88;5054855;28;20079;-37
2023/05/16 01:46:13;;;;;;;10.73;2.17;;;;;;;-143.48;88.50;118439.88;5037102;28;20039;-38
2023/05/16 01:48:50;;;;;;;17.77;2.53;;;;;;;-143.48;88.78;118439.88;5054615;28;20037;-39
2023/05/16 01:51:16;;;;;;;17.88;2.55;;;;;;;-143.48;89.13;118439.88;5054715;28;20074;-38
2023/05/16 01:53:44;;;;;;;12.80;2.47;;;;;;;-143.48;89.21;118439.88;5055303;28;20041;-38
2023/05/16 01:56:14;;;;;;;16.23;2.22;;;;;;;-143.48;89.41;118439.88;5055544;28;20029;-38
2023/05/16 01:58:40;;;;;;;16.90;2.15;;;;;;;-143.48;89.24;118439.88;5055202;28;20034;-39
2023/05/16 02:01:06;;;;;;;11.98;1.90;;;;;;;-143.48;90.18;118439.88;5055188;28;20033;-39
2023/05/16 02:03:32;;;;;;;13.50;2.47;;;;;;;-143.48;88.97;118439.88;5055451;28;20025;-38
2023/05/16 02:05:57;;;;;;;15.52;2.20;;;;;;;-143.48;88.95;118439.88;5055071;28;20060;-39
2023/05/16 02:08:25;;;;;;;19.80;2.33;;;;;;;-143.48;88.61;118439.88;5055031;28;20025;-38
2023/05/16 02:10:51;;;;;;;14.40;2.22;;;;;;;-143.48;89.04;118439.88;5054891;28;20090;-39
2023/05/16 02:13:16;;;;;;;9.90;1.92;;;;;;;-143.48;89.90;118439.88;5055604;28;20037;-38
2023/05/16 02:15:41;;;;;;;15.80;2.22;;;;;;;-143.48;89.44;118439.88;5055571;28;20049;-38
2023/05/16 02:18:08;;;;;;;11.15;1.90;;;;;;;-143.48;89.54;118439.88;5055195;28;20025;-38
2023/05/16 02:20:34;;;;;;;12.63;2.40;;;;;;;-143.48;89.56;118439.88;5054995;28;20124;-38
2023/05/16 02:23:00;;;;;;;15.35;2.40;;;;;;;-143.48;89.39;118439.88;5037183;28;20028;-39
2023/05/16 02:25:25;;;;;;;13.05;2.00;;;;;;;-143.48;89.36;118439.88;5036981;28;20025;-39
2023/05/16 02:27:50;;;;;;;11.20;1.90;;;;;;;-143.48;90.19;118439.88;5055074;28;20531;-39
2023/05/16 02:30:16;;;;;;;17.65;2.53;;;;;;;-143.48;90.43;118439.88;5053507;28;20033;-38
2023/05/16 02:32:43;;;;;;;15.48;2.17;;;;;;;-143.48;90.73;118439.88;5054668;28;20375;-38
2023/05/16 02:35:09;;;;;;;14.05;2.50;;;;;;;-143.48;90.04;118439.88;5054893;28;20455;-38
2023/05/16 02:37:35;;;;;;;14.23;3.08;;;;;;;-143.48;90.68;118439.88;5054611;28;20033;-39
2023/05/16 02:40:00;;;;;;;20.67;2.72;;;;;;;-143.48;90.09;118439.88;5054785;28;20052;-38
2023/05/16 02:42:26;;;;;;;10.35;2.20;;;;;;;-143.48;90.33;118439.88;5054340;28;20158;-38
2023/05/16 02:44:52;;;;;;;12.77;2.03;;;;;;;-143.48;90.12;118439.88;5054665;28;20467;-39
2023/05/16 02:47:17;;;;;;;17.70;2.28;;;;;;;-143.48;89.78;118439.88;5054646;28;20021;-39
2023/05/16 02:49:42;;;;;;;12.98;2.67;;;;;;;-143.48;90.22;118439.88;5054247;28;20463;-39
2023/05/16 02:52:08;;;;;;;20.15;2.92;;;;;;;-143.48;89.34;118439.88;5054278;28;20036;-39
2023/05/16 02:54:33;;;;;;;10.10;1.85;;;;;;;-143.48;89.79;118439.88;5054385;28;20023;-39
2023/05/16 02:56:58;;;;;;;15.27;2.50;;;;;;;-143.48;89.44;118439.88;5054118;28;20057;-38
2023/05/16 02:59:24;;;;;;;13.48;2.38;;;;;;;-143.48;89.83;118439.88;5054162;28;20465;-38
2023/05/16 03:01:49;;;;;;;12.48;2.15;;;;;;;-143.48;90.25;118439.88;5054083;28;20120;-39
2023/05/16 03:04:14;;;;;;;10.40;2.15;;;;;;;-143.48;90.12;118439.88;5054251;28;20048;-38
2023/05/16 03:06:40;;;;;;;9.18;2.00;;;;;;;-143.48;90.41;118439.88;5054019;28;20031;-38
2023/05/16 03:09:06;;;;;;;14.65;3.08;;;;;;;-143.48;90.90;118439.88;5054106;28;20021;-39
2023/05/16 03:11:31;;;;;;;10.55;1.85;;;;;;;-143.48;90.32;118439.88;5053889;28;20056;-37
2023/05/16 03:13:58;;;;;;;11.57;2.10;;;;;;;-143.48;90.81;118439.88;5054015;28;20048;-38
2023/05/16 03:16:24;;;;;;;12.70;2.45;;;;;;;-143.48;91.42;118439.88;5054022;28;20032;-38
2023/05/16 03:18:49;;;;;;;13.00;2.38;;;;;;;-143.48;90.61;118439.88;5053766;28;20028;-38
2023/05/16 03:21:14;;;;;;;10.80;2.05;;;;;;;-143.48;90.61;118439.88;5054299;28;20013;-38
2023/05/16 03:23:40;;;;;;;13.55;2.20;;;;;;;-143.48;90.27;118439.88;5053739;28;20043;-38
2023/05/16 03:26:05;;;;;;;13.77;1.88;;;;;;;-143.48;90.32;118439.88;5053584;28;20017;-38
2023/05/16 03:28:30;;;;;;;15.77;2.13;;;;;;;-143.48;90.41;118439.88;5053895;28;20029;-39
2023/05/16 03:30:55;;;;;;;14.88;2.45;;;;;;;-143.48;91.10;118439.88;5053749;28;20041;-39
2023/05/16 03:33:22;;;;;;;13.40;2.03;;;;;;;-143.48;90.73;118439.88;5053458;28;20025;-39
2023/05/16 03:35:47;;;;;;;7.90;1.80;;;;;;;-143.48;91.76;118439.88;5053812;28;20475;-39
2023/05/16 03:38:13;;;;;;;13.48;2.13;;;;;;;-143.48;91.75;118439.88;5035491;28;20044;-39
2023/05/16 03:40:39;;;;;;;12.30;2.60;;;;;;;-143.48;91.31;118439.88;5053716;28;20052;-38
2023/05/16 03:43:04;;;;;;;11.15;2.45;;;;;;;-143.48;91.00;118439.88;5054013;28;20078;-39
2023/05/16 03:45:30;;;;;;;12.07;2.17;;;;;;;-143.48;91.51;118439.88;5053697;28;20025;-39
2023/05/16 03:47:56;;;;;;;12.55;2.58;;;;;;;-143.48;91.44;118439.88;5053617;28;20426;-38
2023/05/16 03:50:21;;;;;;;18.75;3.70;;;;;;;-143.48;91.07;118439.88;5053300;28;20112;-39
2023/05/16 03:52:47;;;;;;;13.88;2.90;;;;;;;-143.48;92.21;118439.88;5053455;28;20049;-38
2023/05/16 03:55:14;;;;;;;17.70;2.85;;;;;;;-143.48;91.21;118439.88;5053290;28;20547;-38
2023/05/16 03:57:41;;;;;;;10.25;2.00;;;;;;;-143.48;90.12;118439.88;5053309;28;20372;-38
2023/05/16 04:00:07;;;;;;;13.25;2.58;;;;;;;-143.48;90.66;118439.88;5053476;28;20100;-38
2023/05/16 04:02:33;;;;;;;18.30;2.13;;;;;;;-143.48;90.50;118439.88;5053513;28;20024;-38
2023/05/16 04:04:58;;;;;;;12.07;2.17;;;;;;;-143.48;90.50;118439.88;5035982;28;20025;-39
2023/05/16 04:07:23;;;;;;;13.60;2.00;;;;;;;-143.48;90.25;118439.88;5053764;28;20107;-39
2023/05/16 04:09:50;;;;;;;8.48;2.00;;;;;;;-143.48;89.80;118439.88;5053239;28;20071;-39
2023/05/16 04:12:16;;;;;;;14.20;2.25;;;;;;;-143.48;90.25;118439.88;5053153;28;20031;-38
2023/05/16 04:14:41;;;;;;;11.95;2.40;;;;;;;-143.48;89.21;118439.88;5053077;28;20041;-38
2023/05/16 04:17:06;;;;;;;13.68;2.13;;;;;;;-143.48;90.02;118439.88;5053618;28;20094;-38
2023/05/16 04:19:32;;;;;;;15.73;2.13;;;;;;;-143.48;89.05;118439.88;5053410;28;20017;-38
2023/05/16 04:21:57;;;;;;;14.27;2.10;;;;;;;-143.48;89.61;118439.88;5053371;28;20033;-38
2023/05/16 04:24:25;;;;;;;9.43;1.83;;;;;;;-143.48;90.17;118439.88;5053032;28;20391;-39
2023/05/16 04:26:50;;;;;;;9.63;1.83;;;;;;;-143.48;89.98;118439.88;5053027;28;20074;-40
2023/05/16 04:29:16;;;;;;;9.23;1.98;;;;;;;-143.48;89.89;118439.88;5053194;28;20025;-38
2023/05/16 04:31:41;;;;;;;10.50;2.20;;;;;;;-143.48;89.41;118439.88;5053131;28;20029;-38
2023/05/16 04:34:06;;;;;;;17.27;2.20;;;;;;;-143.48;88.27;118439.88;5052969;28;20017;-38
2023/05/16 04:36:34;;;;;;;10.65;2.60;;;;;;;-143.48;87.36;118439.88;5053217;28;20035;-38
2023/05/16 04:38:59;;;;;;;9.63;2.13;;;;;;;-143.48;87.45;118439.88;5052902;28;20463;-38
2023/05/16 04:41:25;;;;;;;11.20;1.98;;;;;;;-143.48;87.21;118439.88;5053144;28;20017;-38
2023/05/16 04:43:50;;;;;;;13.77;2.38;;;;;;;-143.48;86.67;118439.88;5052710;28;20109;-38
2023/05/16 04:46:16;;;;;;;12.88;1.90;;;;;;;-143.48;87.48;118439.88;5052780;28;20463;-38
2023/05/16 04:48:41;;;;;;;15.27;3.00;;;;;;;-143.48;86.37;118439.88;5052774;28;20027;-38
2023/05/16 04:51:06;;;;;;;10.15;2.10;;;;;;;-143.48;85.80;118439.88;5052901;28;20139;-38
2023/05/16 04:53:32;;;;;;;10.02;2.08;;;;;;;-143.48;84.75;118439.88;5054827;28;20027;-38
2023/05/16 04:55:57;;;;;;;15.13;2.35;;;;;;;-143.48;84.08;118439.88;5056780;28;20103;-38
2023/05/16 04:58:23;;;;;;;12.98;2.30;;;;;;;-143.48;84.47;118439.88;5056379;28;20025;-39
2023/05/16 05:00:50;;;;;;;13.13;1.85;;;;;;;-143.48;83.46;118439.88;5038595;28;20024;-39
2023/05/16 05:03:15;;;;;;;13.25;1.80;;;;;;;-143.48;84.59;118439.88;5056373;28;20087;-39
2023/05/16 05:05:41;;;;;;;15.60;2.05;;;;;;;-143.48;84.04;118439.88;5056168;28;20037;-39
2023/05/16 05:08:06;;;;;;;14.00;1.92;;;;;;;-143.48;84.17;118439.88;5056603;28;20047;-38
2023/05/16 05:10:32;;;;;;;8.32;1.83;;;;;;;-143.48;83.98;118439.88;5038323;28;20032;-39
2023/05/16 05:12:57;;;;;;;11.77;1.92;;;;;;;-143.48;83.77;118439.88;5056107;28;20033;-39
2023/05/16 05:15:22;;;;;;;13.93;2.10;;;;;;;-143.48;83.88;118439.88;5056002;28;20055;-39
2023/05/16 05:17:48;;;;;;;16.90;2.15;;;;;;;-143.48;83.50;118439.88;5038223;28;20407;-39
2023/05/16 05:20:13;;;;;;;8.65;1.60;;;;;;;-143.48;83.74;118439.88;5056358;28;20021;-39
2023/05/16 05:22:39;;;;;;;15.45;2.50;;;;;;;-143.48;83.62;118439.88;5056033;28;20032;-38
2023/05/16 05:25:05;;;;;;;14.27;3.10;;;;;;;-143.48;82.96;118439.88;5038874;28;20021;-37
2023/05/16 05:27:30;;;;;;;14.10;1.90;;;;;;;-143.48;82.93;118439.88;5037920;28;20025;-39
2023/05/16 05:29:56;;;;;;;17.23;1.73;;;;;;;-143.48;82.74;118439.88;5055781;28;20150;-39
2023/05/16 05:32:21;;;;;;;14.32;2.83;;;;;;;-143.48;82.41;118439.88;5055698;28;20032;-39
2023/05/16 05:34:46;;;;;;;14.23;2.03;;;;;;;-143.48;82.46;118439.88;5056023;28;20036;-38
2023/05/16 05:37:13;;;;;;;12.95;2.00;;;;;;;-143.48;81.94;118439.88;5055641;28;20482;-38
2023/05/16 05:39:38;;;;;;;10.82;1.60;;;;;;;-143.48;81.89;118439.88;5055535;28;20025;-38
2023/05/16 05:42:04;;;;;;;9.70;1.67;;;;;;;-143.48;82.52;118439.88;5055618;28;20051;-38
2023/05/16 05:44:29;;;;;;;8.55;2.08;;;;;;;-143.48;80.56;118439.88;5055847;28;20378;-38
2023/05/16 05:46:56;;;;;;;8.75;1.92;;;;;;;-143.48;79.32;118439.88;5056091;28;20051;-38
2023/05/16 05:49:22;;;;;;;12.10;2.10;;;;;;;-143.48;79.58;118439.88;5055325;28;20105;-38
2023/05/16 05:51:50;;;;;;;11.85;1.80;;;;;;;-143.48;68.70;118439.88;5055386;28;20025;-38
2023/05/16 05:54:16;;;;;;;11.48;1.88;;;;;;;-143.48;55.63;118439.88;5055513;28;20036;-38
2023/05/16 05:56:41;;;;;;;12.73;2.13;;;;;;;-143.48;52.30;118439.88;5055299;28;20530;-39
2023/05/16 05:59:06;;;;;;;9.60;1.80;;;;;;;-143.48;48.28;118439.88;5055251;28;20056;-38
2023/05/16 06:01:32;;;;;;;12.98;2.13;;;;;;;-143.48;46.86;118439.88;5055395;28;20025;-39
2023/05/16 06:03:57;;;;;;;10.32;2.13;;;;;;;-143.48;46.42;118439.88;5054922;28;20517;-39
2023/05/16 06:06:22;;;;;;;10.85;1.77;;;;;;;-143.48;44.57;118439.88;5055141;28;20067;-39
2023/05/16 06:08:48;;;;;;;7.85;1.80;;;;;;;-143.48;46.56;118439.88;5055342;28;20028;-39
2023/05/16 06:11:13;;;;;;;9.63;1.70;;;;;;;-143.48;49.43;118439.88;5054878;28;20031;-38
2023/05/16 06:13:39;;;;;;;9.55;1.88;;;;;;;-143.48;45.10;118439.88;5055145;28;20024;-39
2023/05/16 06:16:04;;;;;;;24.65;1.85;;;;;;;-143.48;50.14;118439.88;5055108;28;20048;-39
2023/05/16 06:18:30;;;;;;;11.15;1.92;;;;;;;-143.48;47.60;118439.88;5054768;28;20025;-39
2023/05/16 06:20:55;;;;;;;9.77;1.90;;;;;;;-143.48;45.35;118439.88;5052699;28;20043;-39
2023/05/16 06:23:20;;;;;;;6.95;1.90;;;;;;;-143.48;45.84;118439.88;5054746;28;20021;-39
2023/05/16 06:25:46;;;;;;;9.73;1.70;;;;;;;-143.48;44.11;118439.88;5053410;28;20021;-39
2023/05/16 06:28:11;;;;;;;6.20;1.60;;;;;;;-143.48;44.49;118439.88;5052906;28;20033;-40
2023/05/16 06:30:36;;;;;;;10.88;2.03;;;;;;;-143.48;42.14;118439.88;5052442;28;20446;-39
2023/05/16 06:33:02;;;;;;;11.38;1.63;;;;;;;-143.48;42.37;118439.88;5034477;28;20031;-39
2023/05/16 06:35:27;;;;;;;8.32;1.83;;;;;;;-143.48;44.19;118439.88;5052369;28;20059;-39
2023/05/16 06:37:52;;;;;;;6.85;1.90;;;;;;;-143.48;49.25;118439.88;5052330;28;20104;-39
2023/05/16 06:40:18;;;;;;;7.78;1.80;;;;;;;-143.48;45.81;118439.88;5053300;28;20494;-39
2023/05/16 06:42:43;;;;;;;7.88;1.95;;;;;;;-143.48;47.33;118439.88;5054462;28;20371;-39
2023/05/16 06:45:09;;;;;;;15.27;1.98;;;;;;;-143.48;50.78;118439.88;5036272;28;20075;-38
2023/05/16 06:47:35;;;;;;;8.38;1.63;;;;;;;-143.48;46.26;118439.88;5054519;28;20021;-38
2023/05/16 06:50:00;;;;;;;9.23;1.70;;;;;;;-143.48;45.94;118439.88;5054681;28;20025;-38
2023/05/16 06:52:26;;;;;;;6.85;1.60;;;;;;;-143.48;49.82;118439.88;5054296;28;20489;-39
2023/05/16 06:54:51;;;;;;;9.00;1.90;;;;;;;-143.48;50.93;118439.88;5054515;28;20052;-38
2023/05/16 06:57:16;;;;;;;10.93;1.65;;;;;;;-143.48;49.70;118439.88;5054404;28;20105;-38
2023/05/16 06:59:42;;;;;;;7.93;1.55;;;;;;;-143.48;54.46;118439.88;5054396;28;20111;-38
2023/05/16 07:02:07;;;;;;;10.45;1.75;;;;;;;-143.48;56.58;118439.88;5054480;28;20379;-38
2023/05/16 07:04:35;;;;;;;5.57;1.17;;;;;;;-143.48;58.40;118439.88;5054420;28;20028;-38
2023/05/16 07:07:00;;;;;;;10.93;1.70;;;;;;;-143.48;51.30;118439.88;5054075;28;20025;-38
2023/05/16 07:09:26;;;;;;;6.55;1.30;;;;;;;-143.48;56.81;118439.88;5054063;28;20027;-38
2023/05/16 07:11:51;;;;;;;12.73;1.65;;;;;;;-143.48;59.55;118439.88;5054118;28;20040;-38
2023/05/16 07:14:16;;;;;;;4.97;1.38;;;;;;;-143.48;60.02;118439.88;5053678;28;20055;-37
2023/05/16 07:16:41;;;;;;;7.28;1.35;;;;;;;-143.48;61.90;118439.88;5052542;28;20029;-38
2023/05/16 07:19:07;;;;;;;5.90;1.50;;;;;;;-143.48;60.75;118439.88;5053135;28;20051;-38
2023/05/16 07:21:32;;;;;;;6.63;1.42;;;;;;;-143.48;58.04;118439.88;5053092;28;20025;-38
2023/05/16 07:23:57;;;;;;;5.85;1.30;;;;;;;-143.48;58.55;118439.88;5052963;28;20669;-38
2023/05/16 07:26:23;;;;;;;6.93;1.52;;;;;;;-143.48;60.63;118439.88;5052850;28;20025;-38
2023/05/16 07:28:49;;;;;;;6.63;1.40;;;;;;;-143.48;61.03;118439.88;5052717;28;20119;-43
2023/05/16 07:31:16;;;;;;;10.48;1.67;;;;;;;-143.48;58.17;118439.88;5053146;28;20043;-38
2023/05/16 07:33:41;;;;;;;7.93;1.33;;;;;;;-143.48;60.29;118439.88;5053468;28;20032;-38
2023/05/16 07:36:07;;;;;;;8.00;1.45;;;;;;;-143.48;60.35;118439.88;5053398;28;20464;-37
2023/05/16 07:38:32;;;;;;;7.93;1.27;;;;;;;-143.48;61.61;118439.88;5053463;28;20036;-38
2023/05/16 07:40:57;;;;;;;18.13;1.60;;;;;;;-143.48;57.80;118439.88;5053734;28;20020;-38
2023/05/16 07:43:23;;;;;;;6.10;1.40;;;;;;;-143.48;57.53;118439.88;5053223;28;20486;-38
2023/05/16 07:45:48;;;;;;;7.13;1.48;;;;;;;-143.48;53.55;118439.88;5053395;28;20074;-38
2023/05/16 07:48:13;;;;;;;24.67;2.20;;;;;;;-143.48;54.39;118439.88;5053097;28;20113;-38
2023/05/16 07:50:39;;;;;;;8.95;1.33;;;;;;;-143.48;55.06;118439.88;5052940;28;20064;-38
2023/05/16 07:53:04;;;;;;;5.20;1.35;;;;;;;-143.48;55.63;118439.88;5053173;28;20033;-38
2023/05/16 07:55:29;;;;;;;9.05;1.60;;;;;;;-143.48;53.20;118439.88;5053174;28;20518;-38
2023/05/16 07:57:55;;;;;;;10.70;1.58;;;;;;;-143.48;50.20;118439.88;5053080;28;20078;-38
2023/05/16 08:00:20;;;;;;;5.82;1.33;;;;;;;-143.48;51.43;118439.88;5053378;28;20031;-38
2023/05/16 08:02:46;;;;;;;11.32;1.40;;;;;;;-143.48;52.34;118439.88;5053599;28;20031;-38
2023/05/16 08:05:11;;;;;;;7.97;1.15;;;;;;;-143.48;54.39;118439.88;5053115;28;20036;-38
2023/05/16 08:07:37;;;;;;;8.90;1.73;;;;;;;-143.48;54.96;118439.88;5053964;28;20021;-38
2023/05/16 08:10:02;;;;;;;7.03;1.40;;;;;;;-143.48;55.67;118439.88;5035478;28;20467;-38
2023/05/16 08:12:29;;;;;;;7.13;1.38;;;;;;;-143.48;54.86;118439.88;5051716;28;20406;-38
2023/05/16 08:14:55;;;;;;;12.02;1.65;;;;;;;-143.48;53.50;118439.88;5050795;28;20124;-38
2023/05/16 08:17:20;;;;;;;11.20;1.55;;;;;;;-143.48;54.04;118439.88;5051205;28;20025;-38
2023/05/16 08:19:46;;;;;;;8.77;1.33;;;;;;;-143.48;52.51;118439.88;5050864;28;20021;-38
2023/05/16 08:22:11;;;;;;;6.05;1.25;;;;;;;-143.48;51.04;118439.88;5050839;28;20459;-38
2023/05/16 08:24:36;;;;;;;8.23;1.20;;;;;;;-143.48;51.71;118439.88;5050707;28;20075;-38
2023/05/16 08:27:02;;;;;;;8.90;1.40;;;;;;;-143.48;50.74;118439.88;5034422;28;20416;-38
2023/05/16 08:29:27;;;;;;;8.27;1.85;;;;;;;-143.48;49.55;118439.88;5054949;28;20086;-38
2023/05/16 08:31:52;;;;;;;7.72;1.60;;;;;;;-143.48;49.61;118439.88;5054662;28;20023;-38
2023/05/16 08:34:17;;;;;;;7.85;1.40;;;;;;;-143.48;49.90;118439.88;5054760;28;20035;-38
2023/05/16 08:36:43;;;;;;;7.70;1.30;;;;;;;-143.48;49.74;118439.88;5056108;28;20071;-38
2023/05/16 08:39:11;;;;;;;10.07;1.90;;;;;;;-143.48;48.79;118439.88;5056846;28;20024;-38
2023/05/16 08:41:37;;;;;;;9.10;1.55;;;;;;;-143.48;47.48;118439.88;5056181;28;20028;-39
2023/05/16 08:44:03;;;;;;;8.95;1.38;;;;;;;-143.48;45.26;118439.88;5057168;28;20459;-38
2023/05/16 08:46:31;;;;;;;9.68;1.42;;;;;;;-143.48;45.62;118439.88;5056606;28;20037;-38
2023/05/16 08:48:59;;;;;;;8.38;1.35;;;;;;;-143.48;47.76;118439.88;5057070;28;20029;-39
2023/05/16 08:51:27;;;;;;;7.32;1.50;;;;;;;-143.48;48.58;118439.88;5056385;28;20056;-39
2023/05/16 08:54:13;;;;;;;10.23;1.63;;;;;;;-143.48;51.40;118439.88;5056709;28;20070;-38
2023/05/16 08:56:40;;;;;;;6.93;1.77;;;;;;;-143.48;49.58;118439.88;5056145;28;20025;-38
2023/05/16 08:59:06;;;;;;;11.13;1.75;;;;;;;-143.48;49.65;118439.88;5056363;28;20028;-38
2023/05/16 09:01:31;;;;;;;11.20;1.40;;;;;;;-143.48;48.12;118439.88;5056347;28;20455;-38
2023/05/16 09:03:57;;;;;;;6.70;1.45;;;;;;;-143.48;46.91;118439.88;5056368;28;20490;-38
2023/05/16 09:06:23;;;;;;;7.25;1.17;;;;;;;-143.48;47.20;118439.88;5056138;28;20029;-38
2023/05/16 09:08:49;;;;;;;6.00;1.50;;;;;;;-143.48;46.59;118439.88;5056158;28;20033;-39
2023/05/16 09:11:15;;;;;;;7.97;1.67;;;;;;;-143.48;45.23;118439.88;5038022;28;20052;-38
2023/05/16 09:13:40;;;;;;;7.47;1.40;;;;;;;-143.48;44.32;118439.88;5056663;28;20016;-38
2023/05/16 09:16:09;;;;;;;11.02;2.00;;;;;;;-143.48;44.69;118439.88;5056080;28;20041;-38
2023/05/16 09:18:36;;;;;;;5.22;1.35;;;;;;;-143.48;44.69;118439.88;5056780;28;20048;-38
2023/05/16 09:21:03;;;;;;;5.63;1.33;;;;;;;-143.48;45.33;118439.88;5056295;28;20021;-38
2023/05/16 09:23:29;;;;;;;7.45;1.42;;;;;;;-143.48;44.38;118439.88;5056157;28;20478;-38
2023/05/16 09:25:56;;;;;;;5.20;1.63;;;;;;;-143.48;44.88;118439.88;5056191;28;20017;-38
2023/05/16 09:28:21;;;;;;;8.98;1.50;;;;;;;-143.48;44.05;118439.88;5056715;28;20037;-38
2023/05/16 09:30:47;;;;;;;7.07;1.30;;;;;;;-143.48;44.93;118439.88;5055661;28;20025;-38
2023/05/16 09:33:13;;;;;;;9.25;1.58;;;;;;;-143.48;48.79;118439.88;5055837;28;20024;-38
2023/05/16 09:35:38;;;;;;;9.05;1.98;;;;;;;-143.48;47.32;118439.88;5055651;28;20429;-38
2023/05/16 09:38:03;;;;;;;7.53;1.60;;;;;;;-143.48;45.87;118439.88;5055768;28;20021;-38
2023/05/16 09:40:29;;;;;;;7.93;1.80;;;;;;;-143.48;46.84;118439.88;5055911;28;20040;-38
2023/05/16 09:43:04;;;;;;;8.18;1.40;;;;;;;-143.48;45.50;118439.88;5055812;28;20024;-38
2023/05/16 09:45:31;;;;;;;5.72;1.25;;;;;;;-143.48;44.82;118439.88;5055332;28;20060;-38
2023/05/16 09:48:07;;;;;;;7.35;1.40;;;;;;;-143.48;42.67;118439.88;5055605;28;20475;-38
2023/05/16 09:50:34;;;;;;;9.45;1.70;;;;;;;-143.48;43.08;118439.88;5055269;28;20460;-38
2023/05/16 09:53:00;;;;;;;8.10;1.42;;;;;;;-143.48;41.77;118439.88;5055555;28;20029;-38
2023/05/16 09:55:25;;;;;;;7.57;1.50;;;;;;;-143.48;41.39;118439.88;5055583;28;20029;-38
2023/05/16 09:57:51;;;;;;;8.13;1.60;;;;;;;-143.48;40.24;118439.88;5055601;28;20463;-38
2023/05/16 10:00:17;;;;;;;8.25;1.20;;;;;;;-143.48;40.49;118439.88;5055204;28;20025;-38
2023/05/16 10:02:43;;;;;;;5.80;1.50;;;;;;;-143.48;43.41;118439.88;5055390;28;20112;-38
2023/05/16 10:05:08;;;;;;;8.88;1.60;;;;;;;-143.48;46.10;118439.88;5055181;28;20021;-38
2023/05/16 10:07:34;;;;;;;9.02;1.23;;;;;;;-143.48;43.96;118439.88;5037335;28;20458;-38
2023/05/16 10:10:06;;;;;;;7.85;1.35;;;;;;;-143.48;42.13;118439.88;5054984;28;20029;-38
2023/05/16 10:12:32;;;;;;;8.45;1.45;;;;;;;-143.48;41.59;118439.88;5055190;28;20029;-38
2023/05/16 10:15:02;;;;;;;7.72;1.38;;;;;;;-143.48;42.30;118439.88;5054786;28;20051;-38
2023/05/16 10:17:31;;;;;;;7.50;1.30;;;;;;;-143.48;41.32;118439.88;5054852;28;20112;-38
2023/05/16 10:19:57;;;;;;;4.85;1.65;;;;;;;-143.48;43.43;118439.88;5055117;28;20371;-38
2023/05/16 10:22:23;;;;;;;9.48;1.42;;;;;;;-143.48;43.68;118439.88;5054787;28;20020;-38
2023/05/16 10:24:59;;;;;;;6.05;1.30;;;;;;;-143.48;45.45;118439.88;5054683;28;20029;-38
2023/05/16 10:27:25;;;;;;;5.53;1.30;;;;;;;-143.48;42.63;118439.88;5054892;28;20029;-39
2023/05/16 10:29:52;;;;;;;9.05;1.30;;;;;;;-143.48;41.80;118439.88;5054901;28;20111;-38
2023/05/16 10:32:17;;;;;;;5.40;1.15;;;;;;;-143.48;42.20;118439.88;5054694;28;20052;-38
2023/05/16 10:34:44;;;;;;;4.70;1.30;;;;;;;-143.48;42.94;118439.88;5054892;28;20056;-38
2023/05/16 10:37:10;;;;;;;7.05;1.50;;;;;;;-143.48;43.55;118439.88;5055529;28;20048;-38
2023/05/16 10:39:37;;;;;;;8.23;1.48;;;;;;;-143.48;43.52;118439.88;5055320;28;20112;-38
2023/05/16 10:42:03;;;;;;;9.25;1.23;;;;;;;-143.48;42.88;118439.88;5054765;28;20429;-38
2023/05/16 10:44:31;;;;;;;4.35;1.00;;;;;;;-143.48;42.70;118439.88;5055022;28;20048;-39
2023/05/16 10:46:57;;;;;;;8.00;1.27;;;;;;;-143.48;42.02;118439.88;5054699;28;20025;-39
2023/05/16 10:49:24;;;;;;;5.95;1.08;;;;;;;-143.48;42.26;118439.88;5053500;28;20471;-38
2023/05/16 10:52:12;;;;;;;6.72;1.27;;;;;;;-143.48;40.63;118439.88;5053496;28;20079;-38
2023/05/16 10:54:53;;;;;;;7.60;1.23;;;;;;;-143.48;40.84;118439.88;5054159;28;20040;-38
2023/05/16 10:57:22;;;;;;;6.60;1.13;;;;;;;-143.48;41.02;118439.88;5054735;28;20029;-38
2023/05/16 10:59:49;;;;;;;6.63;1.10;;;;;;;-143.48;42.94;118439.88;5035995;28;20029;-38
2023/05/16 11:02:32;;;;;;;8.20;1.35;;;;;;;-143.48;42.92;118439.88;5053898;28;20025;-38